Мирный

СКИДКИ НА СМАРТФОНЫ!

Карта отелей и гостиниц, располагающихся рядом с аэропортом Мирный :

Мирный Республика Саха (Якутия) 62° 32' 4.8012" N, 114° 2' 20.3388" E
Код аэродрома ИКАО
UERR
Код аэродрома RU
УЕРР
Координаты
N62.53467° E114.03898°
Превышение над уровнем моря
361
Основная полоса
07/25
Курс магнитный
067/247
Длина основной ВПП
2805
Ширина основной ВПП
45
Покрытие основной ВПП
Твёрдое (бетон)
Освещение ВПП
Постоянное
Тип: 
Аэродром
Принадлежность: 
ГА
Статус: 
Действующий
Страна: 
Россия
Регион: 
Республика Саха (Якутия)
Дополнительная информация: 
Оператор: Мирнинское АП АК «Алроса». ЭССО: ОМИ "Транскон" (Чехия). Военный индекс: XERR / ЬЕРР. Обеспечивает ряд региональных рейсов, а также внутренние прямые рейсы в Иркутск, Красноярск, Новосибирск, Москву. Является запасным аэропортом на трансконтинентальных маршрутах из Северной Америки в Азию, выполняемых в соответствии с международным стандартом ETOPS. В экстренных ситуациях может принять такие лайнеры, как Airbus A300, Boeing 757, Boeing 767 и др.
Схемы аэропортов: 
Погода: 

Авиационная погода в Мирном

Регион: 
Погода METAR: 
UERR 190400Z 01003MPS 9999 -DZ OVC003 11/10 Q0998 R25/290255 NOSIG RMK QBB100 QFE718/0958
Время наблюдения
2022-08-19T04:00:00Z
Температура C
11.0
Точка росы
10.0
Направление ветра
10
Скорость ветра (узлы)
6
Метео видимость
6.21
Облачность
OVC
Нижняя граница облачности (футы)
300
Явления погоды
-DZ
Условия полета
LIFR
Аэропорт подробнее: 
OVC – сплошная облачность;
-DZ – слабая морось;

Скидки на навигаторы!

Найти трансфер

С помощью этой формы Вы можете найти трансфер из аэропорта Мирный в город, аэропорт или вокзал:

Погода в аэропортах:

Авиационная погода в аэропорту Новый

Регион: 
Погода METAR: 
UHHH 190400Z 32003MPS 280V360 9999 -SHRA SCT033CB 18/17 Q0996 R23R/290045 NOSIG RMK QFE741/0988
Время наблюдения
2022-08-19T04:00:00Z
Температура C
18.0
Точка росы
17.0
Направление ветра
320
Скорость ветра (узлы)
6
Метео видимость
6.21
Облачность
SCT
Нижняя граница облачности (футы)
3300
Явления погоды
-SHRA
Условия полета
VFR
Аэропорт подробнее: 
SCT – разбросанная отдельная облачность;
-SHRA - слабый ливневой дождь;

Авиационная погода в Братске

Регион: 
Погода METAR: 
UIBB 190400Z 25006MPS 220V290 9000 -SHRA BKN006 OVC019CB 09/09 Q1005 R30/290150 NOSIG RMK QBB190 MT OBSC QFE711/0948
Время наблюдения
2022-08-19T04:00:00Z
Температура C
9.0
Точка росы
9.0
Направление ветра
250
Скорость ветра (узлы)
12
Метео видимость
5.59
Облачность
BKN
OVC
Нижняя граница облачности (футы)
600
1900
Явления погоды
-SHRA
Условия полета
IFR
Аэропорт подробнее: 
BKN – значительная (рассеянная, разорванная) облачность; OVC – сплошная облачность;
-SHRA - слабый ливневой дождь;

Авиационная погода в Минеральные Воды

Регион: 
Погода METAR: 
URMM 190400Z VRB01MPS 9999 VCTS SCT///CB 20/18 Q1009 RETS R30/290150 NOSIG RMK QFE729/0972
Время наблюдения
2022-08-19T04:00:00Z
Температура C
20.0
Точка росы
18.0
Направление ветра
0
Скорость ветра (узлы)
2
Метео видимость
6.21
Облачность
Нижняя граница облачности (футы)
Явления погоды
VCTS
Условия полета
Аэропорт подробнее: 

Авиационная погода в Усть-Каменогорске

Регион: 
Погода METAR: 
UASK 190255Z 25002MPS 220V330 2100 BR BCFG SCT004 10/07 Q1015 TEMPO 0200 FG BKN002 RMK QBB120 QFE736/0981
Время наблюдения
2022-08-19T02:55:00Z
Температура C
10.0
Точка росы
7.0
Направление ветра
250
Скорость ветра (узлы)
4
Метео видимость
1.3
Облачность
SCT
Нижняя граница облачности (футы)
400
Явления погоды
BR BCFG
Условия полета
IFR
Аэропорт подробнее: 
SCT – разбросанная отдельная облачность;
FG – туман (небо не видно, температура воздуха выше нуля или ноль); BR – дымка (видимость от 1 до 9 км);